Hlavní strana
METAR-TAF:

METAR-TAF

Letiště :

Lilongwe, Malawi

zeměpisná šířka: 13-47S, zeměpisná délka: 033-46E, výška: 1229 m

Aktuální stav počasí

Zpráva byla vytvořena před 1 hodinou a 3 minutami, v 15:00 UTC
Východní vítr 7 kt
Teplota 23°C
Vlhkost vzduchu 83%
Tlak 1014 hPa
Viditelnost 10 km a více
Skoro jasno ve výšce 2500 ft, Cumulonimbus.
Polojasno ve výšce 8000 ft
bouřka

METAR: FWKI 101500Z 09007KT 9999 TS FEW025CB SCT080 23/20 Q1014 NOSIG

Čas: 18:03 (16:03 UTC)

Předpověď počasí

Zpráva byla vytvořena před 4 hodinami a 43 minutami, v 11:20 UTC
Předpověď platná od 10 v 12 UTC do 11 v 18 UTC
Severní vítr kt
Viditelnost 10 km a více
Skoro jasno ve výšce 2000 ft, Cumulonimbus.
Polojasno ve výšce 2300 ft
Oblačno až skoro zataženo ve výšce 9000 ft

TAF: FWKI 101120Z 1012/1118 00000KT 9999 FEW020CB SCT023 BKN090

Stav a předpovědi počasí z více než 4 000 letišť (zprávy METAR a TAF).

Červené a žluté tečky na mapě představují dostupné meteorologické stanice.

Když kurzor umístíte na tečku, zobrazí se název stanice.

Pak kliknutím zobrazíte stav a předpověď počasí.

Chcete-li změnit mapu, kliknutím na zelené tlačítko se znaménkem +mapu přiblížíte, kliknutím na zelené tlačítko se znaménkem – mapu oddálíte a kliknutím na zelené šipky přejdete na sousední mapy.


METAR-TAF: